Tropical Cyclones
[Index]
Main Index Home Page Stock Weather Photos Extreme Storms Discussion Storm News and Storm Chasing Reports Tropical Cyclones / Hurricanes / Typhoons Weather Data and Links Wild Fires / Bushfires Weather Observation Techniques Weather Picture Catalogue Tornado Pictures and Reports Stock Video Footage and DVDs for sale
Season 1999-2000 Tropical Cyclone OLGA Track Map
Season 1999-2000 Summaries (Operational Data): [AU] [SIO] [SPAC] [SH]
<<- Previous TC | 1999-2000 Season | Next TC ->>

click for intensity scale information  Lat/long Grid: Show Hide

 Date Labels: Show Hide

Operational Tropical Cyclone Data : JTWC Advisories

Name: OLGA
Number: 0020

15 Mar 2000 00:00 UTC to 21 Mar 2000 07:00 UTC

    date/time    lat    long     hPa   cat  kts
2000-03-15 00   17.0   119.0    1000         30          
2000-03-15 04   17.0   118.7    1000         30          
2000-03-15 10   17.0   116.5     996         30          
2000-03-15 16   17.2   115.2     996         30          
2000-03-15 22   17.1   114.5     996         30          
2000-03-16 04   16.5   113.5     995         30          
2000-03-16 10   16.5   113.3     995         30          
2000-03-16 16   16.8   113.0     995         30          
2000-03-16 22   17.0   112.7     995         30          
2000-03-17 04   17.0   112.5     990    1    45          
2000-03-17 10   17.7   111.3     990    1    45          
2000-03-17 16   18.0   110.5     985    1    45          
2000-03-17 22   18.4   109.7     980    2    55          
2000-03-18 04   18.8   109.5     980    2    55          
2000-03-18 10   19.4   108.7     980    2    55          
2000-03-18 16   19.9   107.8     985    1    45          
2000-03-18 22   21.0   107.2     990    1    45          
2000-03-19 04   21.6   105.3     995    1    40          
2000-03-19 10   22.7   104.6     995    1    35          
2000-03-19 16   24.0   104.1     997    1    35          
2000-03-19 22   24.6   104.1     998         30          
2000-03-20 01   24.8   103.0     998    1    40          
2000-03-20 04   24.1   102.1     998    1    40          
2000-03-20 10   24.0   102.0     999    1    40          
2000-03-20 16   24.5   102.0    1000    1    35          
2000-03-20 22   24.5   102.5    1002    1    35          
2000-03-21 07   24.5   100.5    1002         30          
Winds are 10-min average.

Tropical cyclone tracks developed by Michael Bath using operational warnings and advisories and Google Maps.


[Australian Severe Weather index] [Copyright Notice] [Email Contacts] [Search This Site] [Privacy Policy]
Document: tropical_cyclone_olga.htm Updated: 28 May 2013